Holmes, Pennsylvania
Current Conditions -  °F | °C
As of 11:54 AM on Thursday 27 Nov 2014 (Local Time) from KPHL Reporting Station
Broken Clouds Broken Clouds  
Wind Chill: 32°   Ceiling: 2500
Heat Index: 39°   Visibility: 10mi
Dew Point: 29°   Wind: 10mph
Humidity: 67%   Direction: 300°WNW
Pressure: 30.03"   Gusts: NA
Location:  39.9°N, 75.31°W
Report Text: KPHL 271654Z 30009KT 10SM BKN025 BKN070 04/M02 A3003 RMK AO2 SLP168 T00391017 $
Loading
Personal Weather Stations






























Interactive Weather Map New forecast layout! Learn more

10-Day Weather Forecast

Advertisements
Track Severe Weather on mobile